ADDS METAR Data INFO
IDs: Format: Raw Decoded Include TAF

Data at: 0632 UTC 15 Dec 2017

KPVG 150556Z 04005KT 10SM CLR 02/M06 A3009 RMK AO2 SLP190 T00221056 10056 20017 50001 FZRANO
KPVG 150456Z 04005KT 10SM CLR 02/M06 A3009 RMK AO2 SLP192 T00221056 401280011 FZRANO
KPVG 150356Z 05005KT 10SM CLR 02/M05 A3010 RMK AO2 SLP196 T00221050 FZRANO
KPVG 150256Z 06006KT 10SM CLR 03/M04 A3009 RMK AO2 SLP189 T00331039 51022
KPVG 150156Z 07006KT 10SM CLR 04/M03 A3007 RMK AO2 SLP184 T00391028
KPVG 150056Z 06009KT 10SM CLR 05/M02 A3004 RMK AO2 SLP175 T00501022
KPVG 142356Z 04006KT 10SM CLR 06/M02 A3002 RMK AO2 SLP167 T00561017 10128 20056 53039
KPVG 142256Z 06008KT 10SM CLR 06/M01 A2999 RMK AO2 SLP155 T00561006
KPVG 142156Z 06008KT 10SM CLR 06/M02 A2994 RMK AO2 SLP139 T00611017
KPVG 142056Z 06008KT 10SM CLR 08/M02 A2991 RMK AO2 SLP128 T00831022 53026
KPVG 141956Z 02009KT 10SM CLR 11/M03 A2987 RMK AO2 SLP116 T01061033
KPVG 141856Z 01004KT 10SM CLR 11/M03 A2985 RMK AO2 SLP110 T01111028
KPVG 141756Z 32007G15KT 10SM CLR 12/M03 A2983 RMK AO2 SLP102 T01221028 10128 20022 53010
KPVG 141656Z 28009G16KT 10SM CLR 12/M03 A2981 RMK AO2 SLP096 T01221028
KPVG 141556Z 27006KT 10SM CLR 11/M03 A2981 RMK AO2 SLP096 T01111033
KPVG 141456Z 26009G16KT 10SM CLR 08/M04 A2980 RMK AO2 SLP092 T00831044 53025
KPVG 141356Z 24009KT 10SM CLR 06/M05 A2977 RMK AO2 SLP081 T00561050
KPVG 141256Z 23008KT 10SM CLR 03/M06 A2974 RMK AO2 SLP073 T00281056
KPVG 141156Z 23007KT 10SM CLR 02/M06 A2972 RMK AO2 SLP066 T00221056 10033 20022 53024 FZRANO
KPVG 141056Z 24009G15KT 10SM CLR 03/M06 A2969 RMK AO2 SLP054 T00281061
KPVG 140956Z 22009KT 10SM CLR 03/M06 A2966 RMK AO2 SLP045 T00281061
KPVG 140856Z 22008KT 10SM CLR 03/M06 A2965 RMK AO2 SLP042 T00281061 58017
KPVG 140756Z 22009KT 10SM CLR 03/M07 A2967 RMK AO2 SLP049 T00281067
KPVG 140656Z 22009G15KT 10SM CLR 03/M07 A2969 RMK AO2 SLP054 T00331072
KPVG 140556Z 19009KT 10SM CLR 02/M07 A2970 RMK AO2 SLP059 T00221072 10022 21033 58034 FZRANO
KPVG 140456Z 18006KT 10SM FEW110 01/M08 A2974 RMK AO2 SLP072 T00111078 400331056 FZRANO
KPVG 140356Z 19008KT 10SM SCT060 02/M09 A2977 RMK AO2 SLP081 T00171089 FZRANO
KPVG 140256Z 16004KT 10SM OVC080 02/M09 A2980 RMK AO2 SLP093 T00171089 58010 FZRANO
KPVG 140156Z 23005KT 10SM OVC075 02/M09 A2983 RMK AO2 PRESRR SLP102 T00171094 FZRANO
KPVG 140056Z 17005KT 10SM CLR 00/M08 A2981 RMK AO2 SLP096 T00001083 FZRANO
KPVG 132356Z 17003KT 10SM CLR M03/M08 A2983 RMK AO2 SLP103 T10331078 10033 21033 58010 FZRANO
KPVG 132256Z 20004KT 10SM CLR M01/M11 A2985 RMK AO2 SLP111 T10061106 FZRANO
KPVG 132156Z 24006KT 10SM CLR 02/M12 A2985 RMK AO2 SLP108 T00171122 FZRANO
KPVG 132056Z 23008KT 10SM CLR 02/M13 A2986 RMK AO2 SLP113 T00221128 55008 FZRANO
KPVG 131956Z 26010KT 10SM CLR 03/M13 A2986 RMK AO2 SLP113 T00281133
KPVG 131856Z 25011G16KT 10SM CLR 03/M14 A2986 RMK AO2 SLP112 T00281139